Time;durP1;ratioP1;P1;durP2;ratioP2;P2;SDS_P1;SDS_P2;PMS_P1;PMS_P2;Temp;Humidity;BMP_temperature;BMP_pressure;BME280_temperature;BME280_humidity;BME280_pressure;Samples;Min_cycle;Max_cycle;Signal;HPM_P1;HPM_P2
2022/07/11 00:02:19;;;;;;;2.10;2.00;;;;;;;18.21;52.41;94905.44;5118884;28;20180;-69
2022/07/11 00:04:46;;;;;;;1.92;1.83;;;;;;;18.20;52.41;94903.84;5118536;28;20184;-69
2022/07/11 00:07:15;;;;;;;1.85;1.70;;;;;;;18.20;52.42;94900.25;5119150;28;20183;-69
2022/07/11 00:09:42;;;;;;;3.25;1.75;;;;;;;18.18;52.41;94905.44;5117913;28;20211;-69
2022/07/11 00:12:10;;;;;;;2.65;1.90;;;;;;;18.16;52.77;94902.28;5117831;28;20207;-69
2022/07/11 00:14:39;;;;;;;2.63;1.63;;;;;;;18.14;52.58;94908.25;5117728;28;20211;-69
2022/07/11 00:17:07;;;;;;;1.90;1.80;;;;;;;18.14;53.07;94910.25;5117282;28;20196;-69
2022/07/11 00:19:33;;;;;;;1.80;1.70;;;;;;;18.08;52.83;94907.06;5118453;28;20203;-69
2022/07/11 00:22:00;;;;;;;2.00;1.60;;;;;;;18.08;52.68;94915.44;5117927;28;20513;-69
2022/07/11 00:24:29;;;;;;;2.35;2.15;;;;;;;18.03;52.84;94908.28;5117156;28;20187;-69
2022/07/11 00:26:56;;;;;;;2.00;1.90;;;;;;;18.00;52.86;94914.69;5117133;28;20191;-69
2022/07/11 00:29:23;;;;;;;1.80;1.70;;;;;;;18.00;52.82;94913.88;5118026;28;20206;-69
2022/07/11 00:31:49;;;;;;;1.60;1.50;;;;;;;18.00;53.07;94920.25;5116993;28;20183;-69
2022/07/11 00:34:17;;;;;;;2.13;1.70;;;;;;;18.00;53.04;94922.25;5117072;28;20200;-69
2022/07/11 00:36:44;;;;;;;2.10;1.92;;;;;;;17.99;52.98;94920.69;5117412;28;20610;-69
2022/07/11 00:39:11;;;;;;;1.70;1.60;;;;;;;17.98;53.18;94925.47;5117090;28;20306;-69
2022/07/11 00:41:39;;;;;;;1.52;1.50;;;;;;;17.96;53.23;94927.06;5117324;28;20199;-69
2022/07/11 00:44:06;;;;;;;1.95;1.85;;;;;;;17.94;53.00;94924.69;5118040;28;20237;-69
2022/07/11 00:46:33;;;;;;;1.83;1.73;;;;;;;17.92;53.12;94929.06;5117646;28;20188;-69
2022/07/11 00:49:00;;;;;;;1.58;1.55;;;;;;;17.90;53.68;94923.91;5117893;28;20187;-69
2022/07/11 00:51:27;;;;;;;2.20;1.77;;;;;;;17.89;53.54;94927.88;5116798;28;20564;-69
2022/07/11 00:53:55;;;;;;;2.03;1.80;;;;;;;17.84;53.66;94925.50;5117748;28;20236;-69
2022/07/11 00:56:24;;;;;;;2.08;1.65;;;;;;;17.83;53.96;94923.94;5116877;28;20202;-69
2022/07/11 00:58:53;;;;;;;1.95;1.85;;;;;;;17.79;54.10;94923.94;5116277;28;20211;-69
2022/07/11 01:01:20;;;;;;;2.50;2.30;;;;;;;17.79;54.17;94931.50;5117335;28;20191;-69
2022/07/11 01:03:47;;;;;;;1.88;1.77;;;;;;;17.78;54.18;94925.13;5117491;28;20179;-69
2022/07/11 01:06:14;;;;;;;2.15;1.80;;;;;;;17.78;54.04;94927.13;5116676;28;20211;-69
2022/07/11 01:08:41;;;;;;;2.30;2.10;;;;;;;17.76;53.83;94918.38;5116572;28;20207;-69
2022/07/11 01:11:12;;;;;;;1.90;1.70;;;;;;;17.76;53.69;94916.38;5116264;28;20643;-69
2022/07/11 01:13:39;;;;;;;1.88;1.77;;;;;;;17.74;53.95;94917.94;5116322;28;20222;-69
2022/07/11 01:16:13;;;;;;;2.00;1.90;;;;;;;17.74;53.86;94912.34;5116226;28;20203;-69
2022/07/11 01:18:44;;;;;;;1.90;1.80;;;;;;;17.71;53.81;94913.16;5116425;28;20227;-69
2022/07/11 01:21:38;;;;;;;2.15;1.90;;;;;;;17.72;53.69;94917.53;5116285;28;20248;-69
2022/07/11 01:24:08;;;;;;;1.85;1.67;;;;;;;17.72;53.68;94921.13;5103597;28;20276;-69
2022/07/11 01:26:36;;;;;;;1.80;1.70;;;;;;;17.72;53.53;94920.31;5115922;28;20199;-69
2022/07/11 01:29:07;;;;;;;1.95;1.85;;;;;;;17.71;53.14;94921.53;5117099;28;20212;-69
2022/07/11 01:31:33;;;;;;;1.83;1.73;;;;;;;17.69;53.18;94927.53;5117039;28;20199;-69
2022/07/11 01:34:01;;;;;;;2.33;1.70;;;;;;;17.69;53.48;94910.78;5116966;28;20199;-69
2022/07/11 01:36:27;;;;;;;1.80;1.70;;;;;;;17.67;53.50;94912.38;5116286;28;20207;-69
2022/07/11 01:38:54;;;;;;;2.00;1.65;;;;;;;17.61;53.44;94920.38;5115585;28;20212;-69
2022/07/11 01:41:22;;;;;;;2.08;1.88;;;;;;;17.58;53.48;94912.81;5116197;28;20200;-69
2022/07/11 01:43:49;;;;;;;1.95;1.85;;;;;;;17.59;53.64;94908.81;5116457;28;20196;-69
2022/07/11 01:46:17;;;;;;;1.98;1.88;;;;;;;17.60;53.68;94915.97;5115700;28;20206;-69
2022/07/11 01:48:44;;;;;;;1.90;1.80;;;;;;;17.58;53.75;94910.03;5115285;28;20590;-69
2022/07/11 01:51:11;;;;;;;1.95;1.80;;;;;;;17.58;53.85;94917.59;5115433;28;20187;-69
2022/07/11 01:53:38;;;;;;;1.92;1.70;;;;;;;17.56;53.61;94927.13;5115368;28;20236;-69
2022/07/11 01:56:05;;;;;;;2.63;1.80;;;;;;;17.51;53.81;94916.41;5115679;28;20184;-69
2022/07/11 01:58:34;;;;;;;1.80;1.70;;;;;;;17.49;53.97;94920.78;5115265;28;20292;-69
2022/07/11 02:01:00;;;;;;;3.15;1.70;;;;;;;17.49;53.73;94924.34;5115211;28;20203;-69
2022/07/11 02:03:27;;;;;;;1.85;1.75;;;;;;;17.49;53.88;94926.34;5115209;28;20203;-69
2022/07/11 02:05:54;;;;;;;2.30;2.10;;;;;;;17.43;53.80;94922.38;5115671;28;20188;-69
2022/07/11 02:08:21;;;;;;;2.05;1.85;;;;;;;17.40;53.90;94937.13;5115352;28;20196;-69
2022/07/11 02:10:48;;;;;;;1.60;1.50;;;;;;;17.37;53.77;94924.78;5115480;28;20196;-69
2022/07/11 02:13:17;;;;;;;1.70;1.60;;;;;;;17.35;53.86;94937.53;5115710;28;20199;-69
2022/07/11 02:15:46;;;;;;;1.70;1.60;;;;;;;17.33;53.92;94935.16;5115578;28;20200;-69
2022/07/11 02:18:13;;;;;;;2.22;1.98;;;;;;;17.29;53.98;94940.72;5115515;28;20194;-69
2022/07/11 02:20:41;;;;;;;1.48;1.42;;;;;;;17.28;53.98;94943.91;5115235;28;20199;-69
2022/07/11 02:23:09;;;;;;;2.10;1.90;;;;;;;17.27;53.85;94937.53;5115203;28;20195;-69
2022/07/11 02:25:38;;;;;;;1.70;1.60;;;;;;;17.26;54.33;94938.72;5115289;28;20218;-69
2022/07/11 02:28:05;;;;;;;1.65;1.55;;;;;;;17.24;54.20;94943.91;5114625;28;20273;-69
2022/07/11 02:30:32;;;;;;;2.00;1.60;;;;;;;17.23;54.09;94953.47;5115050;28;20199;-69
2022/07/11 02:33:00;;;;;;;1.75;1.65;;;;;;;17.20;54.42;94957.03;5115021;28;20208;-69
2022/07/11 02:35:27;;;;;;;2.15;1.95;;;;;;;17.20;54.31;94953.47;5114895;28;20196;-69
2022/07/11 02:37:54;;;;;;;1.88;1.77;;;;;;;17.18;54.41;94961.44;5114688;28;20199;-69
2022/07/11 02:40:21;;;;;;;2.00;1.80;;;;;;;17.15;54.15;94959.44;5114936;28;20574;-69
2022/07/11 02:42:48;;;;;;;2.55;1.70;;;;;;;17.14;54.10;94955.88;5114641;28;20200;-69
2022/07/11 02:45:15;;;;;;;2.08;1.75;;;;;;;17.14;54.44;94966.19;5114791;28;20196;-69
2022/07/11 02:47:42;;;;;;;2.05;1.80;;;;;;;17.13;54.20;94959.81;5115763;28;20202;-69
2022/07/11 02:50:12;;;;;;;1.85;1.75;;;;;;;17.09;54.30;94957.03;5114783;28;20248;-69
2022/07/11 02:52:40;;;;;;;1.67;1.58;;;;;;;17.09;54.16;94957.03;5114392;28;20239;-69
2022/07/11 02:55:09;;;;;;;1.58;1.48;;;;;;;17.08;54.89;94954.66;5114419;28;20188;-69
2022/07/11 02:57:36;;;;;;;2.38;2.10;;;;;;;17.06;54.75;94959.81;5115420;28;20180;-69
2022/07/11 03:00:04;;;;;;;2.60;2.40;;;;;;;17.03;54.78;94961.44;5119075;28;20212;-69
2022/07/11 03:02:31;;;;;;;3.03;1.90;;;;;;;17.01;54.89;94965.81;5121212;28;20223;-69
2022/07/11 03:04:59;;;;;;;1.80;1.70;;;;;;;16.99;54.68;94957.84;5121458;28;20205;-69
2022/07/11 03:07:28;;;;;;;2.45;1.70;;;;;;;16.95;54.60;94962.59;5121695;28;20194;-69
2022/07/11 03:09:55;;;;;;;1.85;1.70;;;;;;;16.92;54.48;94960.63;5121442;28;20206;-69
2022/07/11 03:12:22;;;;;;;1.83;1.73;;;;;;;16.92;54.38;94966.19;5122447;28;20198;-69
2022/07/11 03:14:49;;;;;;;1.80;1.70;;;;;;;16.91;54.17;94974.94;5121295;28;20550;-69
2022/07/11 03:17:16;;;;;;;1.63;1.52;;;;;;;16.91;54.13;94966.59;5122049;27;20188;-69
2022/07/11 03:19:42;;;;;;;2.00;1.90;;;;;;;16.92;54.58;94977.34;5121008;28;20223;-69
2022/07/11 03:22:10;;;;;;;1.70;1.60;;;;;;;16.93;54.01;94980.91;5122337;28;20196;-69
2022/07/11 03:24:38;;;;;;;2.70;1.90;;;;;;;16.94;54.13;94974.16;5122363;27;20183;-69
2022/07/11 03:27:06;;;;;;;1.80;1.63;;;;;;;16.94;54.15;94983.31;5122145;28;20209;-69
2022/07/11 03:29:33;;;;;;;2.20;1.63;;;;;;;16.93;54.27;94987.28;5121865;28;20187;-69
2022/07/11 03:32:00;;;;;;;2.53;1.88;;;;;;;16.94;54.67;94993.66;5121184;28;20203;-69
2022/07/11 03:34:26;;;;;;;2.17;1.52;;;;;;;16.90;54.67;94984.50;5122185;28;20176;-69
2022/07/11 03:36:53;;;;;;;3.53;1.90;;;;;;;16.92;54.42;94982.91;5121485;28;20199;-69
2022/07/11 03:39:22;;;;;;;2.42;2.15;;;;;;;16.92;54.86;94990.44;5121046;28;20272;-69
2022/07/11 03:41:50;;;;;;;2.10;1.90;;;;;;;16.92;54.96;94993.22;5121602;28;20192;-69
2022/07/11 03:44:17;;;;;;;1.80;1.70;;;;;;;16.91;55.13;94989.66;5121208;28;20192;-69
2022/07/11 03:46:43;;;;;;;1.80;1.70;;;;;;;16.93;54.99;94987.28;5121243;28;20194;-69
2022/07/11 03:49:10;;;;;;;2.72;2.00;;;;;;;16.93;54.89;94994.84;5121147;28;20290;-69
2022/07/11 03:51:37;;;;;;;2.05;1.90;;;;;;;16.93;55.25;94997.63;5121008;28;20202;-69
2022/07/11 03:54:04;;;;;;;2.13;2.00;;;;;;;16.92;55.10;95002.41;5120759;28;20191;-69
2022/07/11 03:56:31;;;;;;;1.85;1.75;;;;;;;16.93;55.46;95006.00;5121995;28;20188;-69
2022/07/11 03:58:59;;;;;;;3.30;2.10;;;;;;;16.93;55.84;95006.78;5120566;28;20260;-69
2022/07/11 04:01:26;;;;;;;2.10;2.00;;;;;;;16.91;55.37;95013.94;5121616;28;20266;-69
2022/07/11 04:03:53;;;;;;;2.22;2.00;;;;;;;16.92;55.83;95019.13;5120602;28;20200;-69
2022/07/11 04:06:20;;;;;;;2.15;1.80;;;;;;;16.93;55.51;95022.72;5120653;28;20210;-69
2022/07/11 04:08:46;;;;;;;2.20;2.00;;;;;;;16.95;55.68;95025.88;5121757;28;20195;-69
2022/07/11 04:11:13;;;;;;;2.17;2.08;;;;;;;16.93;55.80;95026.28;5119805;28;20491;-69
2022/07/11 04:13:40;;;;;;;1.90;1.80;;;;;;;16.89;56.37;95025.50;5117740;28;20203;-69
2022/07/11 04:16:09;;;;;;;2.20;2.00;;;;;;;16.90;56.39;95029.06;5118594;28;20195;-69
2022/07/11 04:18:36;;;;;;;2.13;1.92;;;;;;;16.91;56.64;95025.09;5117305;28;20207;-69
2022/07/11 04:21:03;;;;;;;2.38;2.17;;;;;;;16.93;56.31;95028.28;5118307;28;20218;-69
2022/07/11 04:23:30;;;;;;;2.30;2.10;;;;;;;16.90;56.41;95029.84;5117146;28;20643;-69
2022/07/11 04:25:56;;;;;;;2.47;2.25;;;;;;;16.90;56.76;95034.63;5118052;28;20180;-69
2022/07/11 04:28:23;;;;;;;2.67;2.47;;;;;;;16.90;56.63;95027.06;5118445;28;20195;-69
2022/07/11 04:30:50;;;;;;;2.40;2.20;;;;;;;16.88;56.86;95025.88;5116946;28;20200;-69
2022/07/11 04:33:18;;;;;;;2.53;2.33;;;;;;;16.90;56.97;95026.28;5117665;28;20214;-69
2022/07/11 04:35:45;;;;;;;3.17;2.22;;;;;;;16.91;56.82;95030.66;5117403;28;20184;-69
2022/07/11 04:38:11;;;;;;;2.47;2.10;;;;;;;16.88;56.83;95031.44;5117489;28;20192;-69
2022/07/11 04:40:38;;;;;;;3.70;2.22;;;;;;;16.91;56.94;95034.22;5117250;28;20545;-69
2022/07/11 04:43:05;;;;;;;4.15;2.38;;;;;;;16.91;57.15;95023.09;5117144;28;20192;-69
2022/07/11 04:45:32;;;;;;;2.60;2.40;;;;;;;16.94;56.98;95027.09;5116719;28;20244;-69
2022/07/11 04:48:01;;;;;;;3.53;2.65;;;;;;;16.95;57.48;95023.09;5116764;28;20187;-69
2022/07/11 04:50:29;;;;;;;2.67;2.47;;;;;;;16.97;57.49;95027.09;5116988;28;20198;-69
2022/07/11 04:52:56;;;;;;;2.95;2.75;;;;;;;16.99;57.78;95023.91;5116393;28;20235;-69
2022/07/11 04:55:23;;;;;;;2.75;2.10;;;;;;;17.00;57.57;95028.28;5116904;28;20278;-69
2022/07/11 04:57:50;;;;;;;2.47;2.30;;;;;;;16.99;57.44;95019.16;5116529;28;20202;-69
2022/07/11 05:00:16;;;;;;;2.60;2.40;;;;;;;17.01;57.78;95030.69;5116875;28;20204;-69
2022/07/11 05:02:43;;;;;;;2.58;2.15;;;;;;;16.99;58.13;95038.66;5116728;28;20536;-69
2022/07/11 05:05:11;;;;;;;2.20;2.10;;;;;;;16.99;58.47;95040.63;5116380;28;20203;-69
2022/07/11 05:07:39;;;;;;;2.30;2.10;;;;;;;17.00;58.10;95039.44;5117491;28;20184;-69
2022/07/11 05:10:07;;;;;;;2.65;2.45;;;;;;;17.02;58.07;95045.41;5117162;28;20584;-69
2022/07/11 05:12:35;;;;;;;2.22;2.13;;;;;;;16.98;58.81;95041.81;5116490;28;20217;-69
2022/07/11 05:15:01;;;;;;;2.10;2.00;;;;;;;16.96;58.73;95055.34;5116404;28;20196;-69
2022/07/11 05:17:29;;;;;;;2.28;2.10;;;;;;;16.97;58.48;95060.53;5116477;28;20187;-69
2022/07/11 05:19:55;;;;;;;3.47;2.15;;;;;;;16.99;58.26;95055.38;5117298;28;20219;-69
2022/07/11 05:22:22;;;;;;;2.38;2.17;;;;;;;17.03;58.71;95052.56;5116206;28;20674;-69
2022/07/11 05:24:50;;;;;;;2.50;2.30;;;;;;;17.03;58.32;95056.16;5115859;28;20199;-69
2022/07/11 05:27:17;;;;;;;2.30;2.10;;;;;;;17.01;58.31;95049.38;5116907;28;20194;-69
2022/07/11 05:29:44;;;;;;;2.28;2.13;;;;;;;17.00;57.51;95051.38;5116291;28;20188;-69
2022/07/11 05:32:11;;;;;;;2.95;2.70;;;;;;;17.02;57.55;95056.53;5117003;28;20205;-69
2022/07/11 05:34:38;;;;;;;2.75;2.20;;;;;;;17.07;57.32;95056.19;5117012;28;20184;-69
2022/07/11 05:37:05;;;;;;;2.53;2.30;;;;;;;17.11;56.54;95050.59;5115662;28;20204;-69
2022/07/11 05:39:32;;;;;;;2.25;2.05;;;;;;;17.10;54.67;95058.16;5115660;28;20192;-69
2022/07/11 05:42:00;;;;;;;2.83;2.08;;;;;;;17.12;54.70;95060.56;5116038;28;20608;-68
2022/07/11 05:44:27;;;;;;;2.42;2.15;;;;;;;17.15;54.57;95062.56;5115705;28;20202;-69
2022/07/11 05:46:54;;;;;;;2.53;1.70;;;;;;;17.14;52.33;95063.72;5116084;28;20192;-69
2022/07/11 05:49:21;;;;;;;2.20;1.70;;;;;;;17.10;50.56;95066.50;5116010;28;20202;-68
2022/07/11 05:51:47;;;;;;;1.98;1.77;;;;;;;17.11;50.92;95068.13;5115354;28;20208;-69
2022/07/11 05:54:16;;;;;;;1.85;1.75;;;;;;;17.15;50.13;95076.47;5116661;28;20199;-69
2022/07/11 05:56:42;;;;;;;2.22;1.35;;;;;;;17.17;47.96;95066.53;5115316;28;20291;-69
2022/07/11 05:59:11;;;;;;;1.70;1.40;;;;;;;17.19;48.33;95072.50;5115266;28;20214;-68
2022/07/11 06:01:37;;;;;;;1.80;1.70;;;;;;;17.19;47.99;95066.13;5116494;28;20208;-69
2022/07/11 06:04:04;;;;;;;3.00;1.40;;;;;;;17.19;49.24;95066.13;5115510;28;20191;-69
2022/07/11 06:06:31;;;;;;;3.47;2.00;;;;;;;17.22;49.19;95071.72;5115589;28;20195;-69
2022/07/11 06:08:57;;;;;;;1.88;1.77;;;;;;;17.24;48.80;95060.16;5115431;28;20199;-69
2022/07/11 06:11:24;;;;;;;1.70;1.60;;;;;;;17.25;48.93;95062.56;5115827;28;20192;-69
2022/07/11 06:13:51;;;;;;;2.10;1.90;;;;;;;17.26;49.63;95061.38;5116336;28;20207;-68
2022/07/11 06:16:19;;;;;;;2.25;1.95;;;;;;;17.27;48.52;95070.53;5116248;28;20190;-68
2022/07/11 06:18:46;;;;;;;1.75;1.40;;;;;;;17.24;46.80;95066.53;5115253;28;20199;-68
2022/07/11 06:21:13;;;;;;;5.32;1.70;;;;;;;17.23;45.55;95070.53;5115097;28;20543;-69
2022/07/11 06:23:42;;;;;;;1.40;1.30;;;;;;;17.22;46.49;95073.72;5115737;28;20195;-69
2022/07/11 06:26:11;;;;;;;1.50;1.40;;;;;;;17.24;46.37;95069.31;5115550;28;20215;-68
2022/07/11 06:28:38;;;;;;;2.00;1.80;;;;;;;17.26;46.78;95072.53;5115306;28;20198;-68
2022/07/11 06:31:05;;;;;;;2.00;1.88;;;;;;;17.29;47.13;95070.94;5115022;28;20200;-69
2022/07/11 06:33:33;;;;;;;1.73;1.50;;;;;;;17.30;45.85;95070.53;5114850;28;20188;-69
2022/07/11 06:36:01;;;;;;;1.40;1.40;;;;;;;17.31;45.57;95068.53;5114926;28;20191;-68
2022/07/11 06:38:28;;;;;;;1.60;1.38;;;;;;;17.31;46.09;95071.31;5115065;28;20196;-68
2022/07/11 06:40:55;;;;;;;1.60;1.50;;;;;;;17.32;45.54;95068.16;5115798;28;20260;-68
2022/07/11 06:43:22;;;;;;;1.52;1.42;;;;;;;17.32;45.43;95076.53;5115825;28;20184;-68
2022/07/11 06:45:49;;;;;;;2.20;1.30;;;;;;;17.34;44.19;95062.16;5115937;28;20207;-69
2022/07/11 06:48:15;;;;;;;1.60;1.50;;;;;;;17.35;45.14;95076.91;5114941;28;20200;-68
2022/07/11 06:50:44;;;;;;;1.42;1.23;;;;;;;17.35;45.32;95068.53;5114750;28;20192;-68
2022/07/11 06:53:11;;;;;;;1.30;1.20;;;;;;;17.40;46.01;95073.75;5114371;28;20236;-68
2022/07/11 06:55:37;;;;;;;1.50;1.40;;;;;;;17.42;45.81;95066.56;5114870;28;20261;-69
2022/07/11 06:58:05;;;;;;;1.40;1.30;;;;;;;17.44;45.99;95064.19;5115107;28;20519;-69
2022/07/11 07:00:31;;;;;;;1.90;1.70;;;;;;;17.46;45.74;95067.34;5115635;28;20246;-69
2022/07/11 07:02:58;;;;;;;2.08;1.40;;;;;;;17.50;44.06;95057.03;5114365;28;20203;-70
2022/07/11 07:05:26;;;;;;;2.20;1.70;;;;;;;17.51;43.64;95064.19;5114598;28;20603;-69
2022/07/11 07:07:54;;;;;;;2.45;1.55;;;;;;;17.52;43.27;95062.19;5116065;28;20184;-70
2022/07/11 07:10:21;;;;;;;1.55;1.45;;;;;;;17.53;44.26;95060.97;5115594;28;20198;-70
2022/07/11 07:12:48;;;;;;;3.60;1.48;;;;;;;17.55;44.24;95061.41;5115263;28;20180;-70
2022/07/11 07:15:15;;;;;;;3.22;1.75;;;;;;;17.55;44.80;95051.03;5115459;28;20206;-69
2022/07/11 07:17:41;;;;;;;2.28;1.60;;;;;;;17.57;45.60;95045.03;5115150;28;20199;-69
2022/07/11 07:20:10;;;;;;;1.67;1.58;;;;;;;17.59;46.49;95042.66;5114732;28;20196;-70
2022/07/11 07:22:37;;;;;;;4.60;2.03;;;;;;;17.63;47.34;95053.81;5114612;28;20198;-69
2022/07/11 07:25:07;;;;;;;2.30;1.38;;;;;;;17.65;46.80;95048.66;5115414;28;20176;-69
2022/07/11 07:27:34;;;;;;;1.75;1.55;;;;;;;17.63;47.41;95053.81;5115440;28;20218;-69
2022/07/11 07:30:01;;;;;;;2.10;1.50;;;;;;;17.66;47.74;95039.88;5115379;28;20543;-70
2022/07/11 07:32:27;;;;;;;3.15;2.33;;;;;;;17.67;47.97;95049.81;5114413;28;20195;-70
2022/07/11 07:34:54;;;;;;;3.50;1.73;;;;;;;17.70;47.30;95043.47;5115296;28;20180;-69
2022/07/11 07:37:21;;;;;;;2.67;1.85;;;;;;;17.72;46.52;95048.63;5114152;28;20200;-69
2022/07/11 07:39:48;;;;;;;1.70;1.60;;;;;;;17.73;47.07;95050.25;5114842;28;20199;-69
2022/07/11 07:42:16;;;;;;;2.60;1.70;;;;;;;17.74;47.15;95054.63;5114464;28;20211;-69
2022/07/11 07:44:43;;;;;;;1.60;1.52;;;;;;;17.77;47.23;95051.06;5114262;28;20188;-69
2022/07/11 07:47:10;;;;;;;2.33;1.58;;;;;;;17.79;46.65;95057.00;5117226;28;20510;-69
2022/07/11 07:49:37;;;;;;;4.82;1.80;;;;;;;17.83;47.39;95055.06;5119039;28;20191;-69
2022/07/11 07:52:04;;;;;;;2.20;1.60;;;;;;;17.84;46.59;95053.06;5118732;28;20234;-69
2022/07/11 07:54:31;;;;;;;3.42;1.92;;;;;;;17.82;45.80;95053.44;5118831;28;20600;-69
2022/07/11 07:56:58;;;;;;;2.00;1.50;;;;;;;17.82;47.24;95053.44;5118662;28;20192;-70
2022/07/11 07:59:26;;;;;;;2.20;1.48;;;;;;;17.87;47.00;95060.63;5118937;28;20258;-69
2022/07/11 08:01:52;;;;;;;2.25;1.40;;;;;;;17.87;45.91;95064.22;5117500;28;20216;-69
2022/07/11 08:04:19;;;;;;;2.70;1.60;;;;;;;17.87;47.12;95055.03;5119080;28;20183;-70
2022/07/11 08:06:46;;;;;;;1.70;1.60;;;;;;;17.96;47.40;95061.78;5117997;28;20275;-70
2022/07/11 08:09:13;;;;;;;2.30;1.60;;;;;;;17.99;46.49;95061.00;5118680;28;20192;-70
2022/07/11 08:11:40;;;;;;;1.58;1.30;;;;;;;18.05;47.67;95064.19;5118951;28;20203;-70
2022/07/11 08:14:08;;;;;;;2.55;1.50;;;;;;;18.07;46.09;95066.56;5118723;28;20196;-70
2022/07/11 08:16:36;;;;;;;1.55;1.45;;;;;;;18.08;45.79;95066.16;5118627;28;20260;-70
2022/07/11 08:19:05;;;;;;;1.70;1.60;;;;;;;18.08;44.68;95063.34;5118590;28;20187;-69
2022/07/11 08:21:32;;;;;;;1.42;1.33;;;;;;;18.09;45.23;95062.19;5117383;28;20219;-69
2022/07/11 08:23:59;;;;;;;3.67;1.60;;;;;;;18.13;45.41;95059.38;5117922;28;20261;-69
2022/07/11 08:26:26;;;;;;;2.05;1.73;;;;;;;18.16;45.19;95061.38;5117563;28;20203;-69
2022/07/11 08:28:53;;;;;;;1.50;1.40;;;;;;;18.18;44.61;95073.72;5117474;28;20204;-69
2022/07/11 08:31:20;;;;;;;1.60;1.45;;;;;;;18.21;44.69;95063.75;5117290;28;20195;-69
2022/07/11 08:33:48;;;;;;;1.85;1.55;;;;;;;18.27;44.28;95068.53;5117458;28;20192;-69
2022/07/11 08:36:14;;;;;;;1.58;1.30;;;;;;;18.30;45.53;95058.56;5118202;28;20184;-69
2022/07/11 08:38:46;;;;;;;2.97;1.63;;;;;;;18.37;44.14;95064.09;5118179;28;20180;-69
2022/07/11 08:41:13;;;;;;;1.77;1.05;;;;;;;18.41;44.78;95062.09;5116820;28;20269;-69
2022/07/11 08:43:42;;;;;;;1.65;1.52;;;;;;;18.46;44.37;95060.88;5116729;28;20550;-69
2022/07/11 08:46:12;;;;;;;1.45;1.17;;;;;;;18.52;44.59;95053.69;5117973;28;20187;-69
2022/07/11 08:48:40;;;;;;;1.58;1.38;;;;;;;18.53;42.70;95058.06;5117776;28;20202;-69
2022/07/11 08:51:09;;;;;;;1.80;1.40;;;;;;;18.52;43.06;95048.09;5117824;28;20265;-69
2022/07/11 08:53:40;;;;;;;2.35;1.60;;;;;;;18.55;42.21;95060.44;5116794;28;20238;-69
2022/07/11 08:56:14;;;;;;;1.52;1.42;;;;;;;18.58;43.74;95045.69;5117937;28;20319;-69
2022/07/11 08:58:44;;;;;;;1.92;1.20;;;;;;;18.65;43.43;95056.81;5117537;28;20198;-69
2022/07/11 09:01:11;;;;;;;2.58;1.70;;;;;;;18.73;45.12;95041.63;5117343;28;20203;-69
2022/07/11 09:03:38;;;;;;;3.53;1.75;;;;;;;18.80;42.46;95061.16;5117697;28;20188;-69
2022/07/11 09:06:05;;;;;;;2.00;1.75;;;;;;;18.76;42.86;95052.00;5117026;28;20188;-70
2022/07/11 09:08:33;;;;;;;2.47;2.03;;;;;;;18.82;43.13;95067.16;5117252;28;20195;-70
2022/07/11 09:11:00;;;;;;;3.45;1.63;;;;;;;18.89;43.57;95066.34;5116617;28;20253;-69
2022/07/11 09:13:30;;;;;;;3.50;3.30;;;;;;;19.00;42.97;95069.88;5117099;28;20204;-69
2022/07/11 09:16:02;;;;;;;1.60;1.40;;;;;;;19.04;41.29;95072.63;5116952;28;20202;-70
2022/07/11 09:18:34;;;;;;;1.50;1.40;;;;;;;19.07;42.82;95075.41;5117353;28;20192;-70
2022/07/11 09:26:35;;;;;;;1.25;1.15;;;;;;;19.32;43.13;95064.09;5116016;28;20294;-70
2022/07/11 09:29:06;;;;;;;2.88;1.50;;;;;;;19.41;41.59;95063.63;5116245;28;20294;-70
2022/07/11 09:31:34;;;;;;;2.15;1.40;;;;;;;19.47;41.35;95070.38;5116394;28;20196;-69
2022/07/11 09:34:04;;;;;;;2.97;1.40;;;;;;;19.48;41.97;95072.75;5116241;28;20204;-70
2022/07/11 09:36:38;;;;;;;1.33;1.23;;;;;;;19.55;43.09;95068.31;5115885;28;20199;-70
2022/07/11 09:39:08;;;;;;;1.20;1.20;;;;;;;19.65;41.22;95068.28;5116624;28;20187;-70
2022/07/11 09:41:35;;;;;;;1.63;1.52;;;;;;;19.73;41.42;95066.22;5116897;28;20204;-70
2022/07/11 09:44:10;;;;;;;1.40;1.30;;;;;;;19.79;40.15;95064.56;5116777;28;20192;-70
2022/07/11 09:46:37;;;;;;;3.00;1.73;;;;;;;19.85;42.04;95060.09;5116473;28;20594;-69
2022/07/11 09:49:04;;;;;;;2.10;1.50;;;;;;;19.96;42.63;95060.00;5115964;28;20206;-69
2022/07/11 09:51:32;;;;;;;1.73;1.60;;;;;;;20.08;41.12;95076.31;5116440;28;20211;-70
2022/07/11 09:53:59;;;;;;;1.80;1.70;;;;;;;20.06;40.98;95059.09;5095541;28;20188;-70
2022/07/11 09:56:33;;;;;;;2.00;1.80;;;;;;;20.10;40.30;95073.88;5095398;28;20200;-70
2022/07/11 09:59:01;;;;;;;1.63;1.52;;;;;;;20.15;40.37;95070.63;5095061;28;20192;-70
2022/07/11 10:01:28;;;;;;;2.08;1.42;;;;;;;20.24;42.01;95075.75;5095407;28;20215;-69
2022/07/11 10:03:55;;;;;;;1.73;1.35;;;;;;;20.27;40.49;95076.91;5095580;28;20245;-70
2022/07/11 10:06:22;;;;;;;1.55;1.45;;;;;;;20.24;39.44;95072.94;5095317;28;20292;-70
2022/07/11 10:08:49;;;;;;;1.70;1.60;;;;;;;20.29;41.41;95071.69;5095342;28;20181;-70
2022/07/11 10:11:16;;;;;;;1.52;1.40;;;;;;;20.44;42.36;95073.94;5095333;28;20192;-70
2022/07/11 10:13:45;;;;;;;1.50;1.40;;;;;;;20.54;42.26;95072.25;5096124;28;20209;-70
2022/07/11 10:16:18;;;;;;;2.95;1.50;;;;;;;20.57;40.78;95065.00;5095213;28;20192;-70
2022/07/11 10:18:48;;;;;;;1.73;1.55;;;;;;;20.60;40.33;95067.78;5095884;28;20206;-70
2022/07/11 10:21:20;;;;;;;1.45;1.40;;;;;;;20.61;39.58;95074.97;5095943;28;20630;-70
2022/07/11 10:23:51;;;;;;;1.60;1.48;;;;;;;20.63;40.32;95068.94;5095766;28;20282;-70
2022/07/11 10:26:23;;;;;;;1.60;1.50;;;;;;;20.67;39.71;95073.28;5095875;28;20204;-69
2022/07/11 10:28:55;;;;;;;1.70;1.60;;;;;;;20.76;39.60;95081.19;5095404;28;20188;-70
2022/07/11 10:31:23;;;;;;;1.42;1.33;;;;;;;20.75;39.32;95071.19;5095399;28;20244;-70
2022/07/11 10:34:02;;;;;;;2.28;1.50;;;;;;;20.84;39.60;95082.72;5095713;28;20191;-70
2022/07/11 10:36:31;;;;;;;1.70;1.60;;;;;;;20.88;38.14;95088.28;5094423;28;20196;-70
2022/07/11 10:39:17;;;;;;;1.50;1.40;;;;;;;20.86;36.75;95080.28;5094312;28;20203;-70
2022/07/11 10:41:44;;;;;;;2.33;1.63;;;;;;;20.79;36.85;95074.75;5095501;28;20277;-69
2022/07/11 10:44:12;;;;;;;1.73;1.60;;;;;;;20.83;38.19;95080.31;5095272;28;20185;-69
2022/07/11 10:46:39;;;;;;;2.35;1.35;;;;;;;20.88;37.67;95079.88;5095291;28;20177;-70
2022/07/11 10:49:18;;;;;;;2.38;1.85;;;;;;;20.95;40.50;95076.16;5095720;28;20184;-69
2022/07/11 10:51:52;;;;;;;1.85;1.75;;;;;;;21.04;39.54;95079.25;5096013;28;20250;-70
2022/07/11 10:54:26;;;;;;;2.15;1.40;;;;;;;21.08;39.17;95075.19;5115858;28;20230;-69
2022/07/11 10:57:06;;;;;;;1.50;1.40;;;;;;;21.16;38.94;95073.88;5115641;28;20190;-70
2022/07/11 10:59:34;;;;;;;1.45;1.35;;;;;;;21.23;38.60;95083.41;5115691;28;20187;-70
2022/07/11 11:02:10;;;;;;;1.95;1.50;;;;;;;21.22;36.37;95087.44;5114843;28;20215;-70
2022/07/11 11:04:57;;;;;;;1.40;1.30;;;;;;;21.16;35.71;95081.47;5115562;28;20191;-70
2022/07/11 11:07:38;;;;;;;1.40;1.30;;;;;;;21.19;38.43;95080.66;5115358;28;20184;-69
2022/07/11 11:10:08;;;;;;;2.78;1.45;;;;;;;21.25;38.70;95087.38;5114859;28;20196;-69
2022/07/11 11:13:14;;;;;;;1.58;1.40;;;;;;;21.35;38.76;95080.88;5115186;28;20588;-69
2022/07/11 11:15:44;;;;;;;1.75;1.60;;;;;;;21.39;39.17;95090.03;5115212;28;20223;-69
2022/07/11 11:18:36;;;;;;;2.10;2.00;;;;;;;21.42;36.57;95079.94;5115724;28;20198;-69
2022/07/11 11:21:17;;;;;;;1.73;1.40;;;;;;;21.39;37.03;95075.19;5116830;28;20207;-69
2022/07/11 11:23:45;;;;;;;1.70;1.60;;;;;;;21.46;37.76;95075.09;5119625;28;20202;-70
2022/07/11 11:26:13;;;;;;;1.70;1.60;;;;;;;21.52;38.52;95081.81;5119332;28;20179;-70
2022/07/11 11:28:57;;;;;;;1.50;1.40;;;;;;;21.64;37.77;95080.41;5119590;28;20192;-69
2022/07/11 11:31:25;;;;;;;2.75;1.65;;;;;;;21.70;38.30;95084.34;5119255;28;20180;-70
2022/07/11 11:33:53;;;;;;;2.15;1.42;;;;;;;21.75;36.96;95075.44;5118480;28;20191;-69
2022/07/11 11:36:21;;;;;;;1.70;1.60;;;;;;;21.79;38.84;95078.22;5118512;28;20196;-69
2022/07/11 11:38:48;;;;;;;2.03;1.55;;;;;;;21.88;39.59;95070.03;5118466;28;20196;-70
2022/07/11 11:41:16;;;;;;;2.38;1.65;;;;;;;21.96;37.20;95084.72;5118569;28;20188;-70
2022/07/11 11:43:45;;;;;;;2.05;1.40;;;;;;;21.96;35.71;95076.31;5118932;28;20179;-70
2022/07/11 11:46:13;;;;;;;2.00;1.50;;;;;;;21.95;37.51;95083.16;5119132;28;20596;-70